createdAt,value
2017-07-18T00:00:52.310Z,16.77
2017-07-18T00:01:53.732Z,16.65
2017-07-18T00:02:55.162Z,16.68
2017-07-18T00:03:56.578Z,16.81
2017-07-18T00:04:58.001Z,16.77
2017-07-18T00:05:59.430Z,16.77
2017-07-18T00:07:00.863Z,16.67
2017-07-18T00:08:02.286Z,16.74
2017-07-18T00:09:03.711Z,16.65
2017-07-18T00:10:05.133Z,16.55
2017-07-18T00:11:06.560Z,16.65
2017-07-18T00:12:07.989Z,16.65
2017-07-18T00:13:09.414Z,16.71
2017-07-18T00:14:10.834Z,16.42
2017-07-18T00:15:12.259Z,16.06
2017-07-18T00:16:13.676Z,15.70
2017-07-18T00:17:15.124Z,15.59
2017-07-18T00:18:16.530Z,15.41
2017-07-18T00:19:17.955Z,15.26
2017-07-18T00:20:19.382Z,15.15
2017-07-18T00:21:20.807Z,15.13
2017-07-18T00:22:22.229Z,15.20
2017-07-18T00:23:23.656Z,15.28
2017-07-18T00:24:25.090Z,15.54
2017-07-18T00:25:26.514Z,15.56
2017-07-18T00:26:27.936Z,15.49
2017-07-18T00:27:29.364Z,15.51
2017-07-18T00:28:30.792Z,15.60
2017-07-18T00:29:32.216Z,15.72
2017-07-18T00:30:33.639Z,15.78
2017-07-18T00:31:35.060Z,15.99
2017-07-18T00:32:36.478Z,16.11
2017-07-18T00:33:37.893Z,16.30
2017-07-18T00:34:39.318Z,15.88
2017-07-18T00:35:40.740Z,15.72
2017-07-18T00:36:42.165Z,15.60
2017-07-18T00:37:43.587Z,15.56
2017-07-18T00:38:45.012Z,15.54
2017-07-18T00:39:46.436Z,15.54
2017-07-18T00:40:47.934Z,15.52
2017-07-18T00:41:49.353Z,15.72
2017-07-18T00:42:50.774Z,15.81
2017-07-18T00:43:52.225Z,15.94
2017-07-18T00:44:53.628Z,16.01
2017-07-18T00:45:55.048Z,15.96
2017-07-18T00:46:56.470Z,16.01
2017-07-18T00:47:57.890Z,16.00
2017-07-18T00:48:59.312Z,15.85
2017-07-18T00:50:00.734Z,15.64
2017-07-18T00:51:02.152Z,15.45
2017-07-18T00:52:03.580Z,15.24
2017-07-18T00:53:04.999Z,15.02
2017-07-18T00:54:06.428Z,14.94
2017-07-18T00:55:07.849Z,14.81
2017-07-18T00:56:09.272Z,14.88
2017-07-18T00:57:10.702Z,14.84
2017-07-18T00:58:12.135Z,14.99
2017-07-18T00:59:13.546Z,15.36
2017-07-18T01:00:14.969Z,15.43
2017-07-18T01:01:16.381Z,15.39
2017-07-18T01:02:17.808Z,15.48
2017-07-18T01:03:19.230Z,15.52
2017-07-18T01:04:20.656Z,15.61
2017-07-18T01:05:22.073Z,15.72
2017-07-18T01:06:23.501Z,15.75
2017-07-18T01:07:24.928Z,15.96
2017-07-18T01:08:26.353Z,15.92
2017-07-18T01:09:28.431Z,15.81
2017-07-18T01:10:29.142Z,15.82
2017-07-18T01:11:30.578Z,15.88
2017-07-18T01:12:31.996Z,15.94
2017-07-18T01:13:33.412Z,15.88
2017-07-18T01:14:34.844Z,15.70
2017-07-18T01:15:36.267Z,15.57
2017-07-18T01:16:37.688Z,15.60
2017-07-18T01:17:39.108Z,15.66
2017-07-18T01:18:40.549Z,15.56
2017-07-18T01:19:41.972Z,15.51
2017-07-18T01:20:43.394Z,15.54
2017-07-18T01:21:44.829Z,15.49
2017-07-18T01:22:46.242Z,15.36
2017-07-18T01:23:47.666Z,15.21
2017-07-18T01:24:49.092Z,15.30
2017-07-18T01:25:50.521Z,15.24
2017-07-18T01:26:51.951Z,15.31
2017-07-18T01:27:53.369Z,15.36
2017-07-18T01:28:54.809Z,15.39
2017-07-18T01:29:56.237Z,15.23
2017-07-18T01:30:57.660Z,15.27
2017-07-18T01:31:59.076Z,15.42
2017-07-18T01:33:00.516Z,15.51
2017-07-18T01:34:01.940Z,15.54
2017-07-18T01:35:03.358Z,15.45
2017-07-18T01:36:04.784Z,15.51
2017-07-18T01:37:06.207Z,15.49
2017-07-18T01:38:07.629Z,15.66
2017-07-18T01:39:09.052Z,15.21
2017-07-18T01:40:10.474Z,15.08
2017-07-18T01:41:11.898Z,14.84
2017-07-18T01:42:13.331Z,14.67
2017-07-18T01:43:14.740Z,14.56
2017-07-18T01:44:16.164Z,14.50
2017-07-18T01:45:17.589Z,14.47
2017-07-18T01:46:19.013Z,14.31
2017-07-18T01:47:20.439Z,14.27
2017-07-18T01:48:21.866Z,14.32
2017-07-18T01:49:23.281Z,14.32
2017-07-18T01:50:24.708Z,14.35
2017-07-18T01:51:26.126Z,14.44
2017-07-18T01:52:27.552Z,14.65
2017-07-18T01:53:28.974Z,14.88
2017-07-18T01:54:30.398Z,14.95
2017-07-18T01:55:31.815Z,14.90
2017-07-18T01:56:33.252Z,15.02
2017-07-18T01:57:34.666Z,15.05
2017-07-18T01:58:36.088Z,15.24
2017-07-18T01:59:37.504Z,15.41
2017-07-18T02:00:38.938Z,15.56
2017-07-18T02:01:40.359Z,15.67
2017-07-18T02:02:41.789Z,15.41
2017-07-18T02:03:43.213Z,15.38
2017-07-18T02:04:44.627Z,15.49
2017-07-18T02:05:46.054Z,15.46
2017-07-18T02:06:47.486Z,14.98
2017-07-18T02:07:48.912Z,14.78
2017-07-18T02:08:50.341Z,14.91
2017-07-18T02:09:51.760Z,14.88
2017-07-18T02:10:53.181Z,14.94
2017-07-18T02:11:54.619Z,14.91
2017-07-18T02:12:56.041Z,14.88
2017-07-18T02:13:57.469Z,14.72
2017-07-18T02:14:58.891Z,14.69
2017-07-18T02:16:00.315Z,14.81
2017-07-18T02:17:01.733Z,15.01
2017-07-18T02:18:03.155Z,14.86
2017-07-18T02:19:04.640Z,14.74
2017-07-18T02:20:06.096Z,14.54
2017-07-18T02:21:07.519Z,14.57
2017-07-18T02:22:08.943Z,14.57
2017-07-18T02:23:10.453Z,14.56
2017-07-18T02:24:11.872Z,14.65
2017-07-18T02:25:13.297Z,15.11
2017-07-18T02:26:14.776Z,15.20
2017-07-18T02:27:16.201Z,14.99
2017-07-18T02:28:17.620Z,15.21
2017-07-18T02:29:19.044Z,15.28
2017-07-18T02:30:20.476Z,15.43
2017-07-18T02:31:21.967Z,15.36
2017-07-18T02:32:23.383Z,15.23
2017-07-18T02:33:24.816Z,15.17
2017-07-18T02:34:26.241Z,15.24
2017-07-18T02:35:27.663Z,15.38
2017-07-18T02:36:29.081Z,15.42
2017-07-18T02:37:30.589Z,15.42
2017-07-18T02:38:32.049Z,15.27
2017-07-18T02:39:33.472Z,15.09
2017-07-18T02:40:34.909Z,15.17
2017-07-18T02:41:36.350Z,15.45
2017-07-18T02:42:38.270Z,15.21
2017-07-18T02:43:39.709Z,15.23
2017-07-18T02:44:41.123Z,14.94
2017-07-18T02:45:42.558Z,14.99
2017-07-18T02:46:44.007Z,15.19
2017-07-18T02:47:45.429Z,15.19
2017-07-18T02:48:46.852Z,15.20
2017-07-18T02:49:48.262Z,15.20
2017-07-18T02:50:49.683Z,15.01
2017-07-18T02:51:51.112Z,14.83
2017-07-18T02:52:52.531Z,14.68
2017-07-18T02:53:53.957Z,14.68
2017-07-18T02:54:55.373Z,14.81
2017-07-18T02:55:56.792Z,14.74
2017-07-18T02:56:58.218Z,14.87
2017-07-18T02:57:59.643Z,15.08
2017-07-18T02:59:01.063Z,15.02
2017-07-18T03:00:02.489Z,15.12
2017-07-18T03:01:03.910Z,15.23
2017-07-18T03:02:05.332Z,15.21
2017-07-18T03:03:06.775Z,15.31
2017-07-18T03:04:08.206Z,15.30
2017-07-18T03:05:09.629Z,15.30
2017-07-18T03:06:11.052Z,15.28
2017-07-18T03:07:12.471Z,15.26
2017-07-18T03:08:13.898Z,15.24
2017-07-18T03:09:15.323Z,15.08
2017-07-18T03:10:16.742Z,15.11
2017-07-18T03:11:18.281Z,15.20
2017-07-18T03:12:19.706Z,15.17
2017-07-18T03:13:21.132Z,15.01
2017-07-18T03:14:22.560Z,15.24
2017-07-18T03:15:24.096Z,15.21
2017-07-18T03:16:25.520Z,15.13
2017-07-18T03:17:26.936Z,14.91
2017-07-18T03:18:28.358Z,14.78
2017-07-18T03:19:29.790Z,14.68
2017-07-18T03:20:31.216Z,14.57
2017-07-18T03:21:32.637Z,14.62
2017-07-18T03:22:34.071Z,14.52
2017-07-18T03:23:35.490Z,14.53
2017-07-18T03:24:36.911Z,14.72
2017-07-18T03:25:38.334Z,14.60
2017-07-18T03:26:39.755Z,14.75
2017-07-18T03:27:41.186Z,14.78
2017-07-18T03:28:42.599Z,14.64
2017-07-18T03:29:44.014Z,14.57
2017-07-18T03:30:45.438Z,14.71
2017-07-18T03:31:46.861Z,14.95
2017-07-18T03:32:48.295Z,14.93
2017-07-18T03:33:49.709Z,14.90
2017-07-18T03:34:51.137Z,14.87
2017-07-18T03:35:52.558Z,14.57
2017-07-18T03:36:53.983Z,14.74
2017-07-18T03:37:55.402Z,14.88
2017-07-18T03:38:56.827Z,15.06
2017-07-18T03:39:58.248Z,15.06
2017-07-18T03:40:59.672Z,15.26
2017-07-18T03:42:01.095Z,15.11
2017-07-18T03:43:02.513Z,15.26
2017-07-18T03:44:03.932Z,15.20
2017-07-18T03:45:05.360Z,15.11
2017-07-18T03:46:06.779Z,15.30
2017-07-18T03:47:08.200Z,15.39
2017-07-18T03:48:09.623Z,15.26
2017-07-18T03:49:11.044Z,14.99
2017-07-18T03:50:12.467Z,15.15
2017-07-18T03:51:13.888Z,15.19
2017-07-18T03:52:15.310Z,15.09
2017-07-18T03:53:16.733Z,14.95
2017-07-18T03:54:18.157Z,15.02
2017-07-18T03:55:19.578Z,15.06
2017-07-18T03:56:20.999Z,15.03
2017-07-18T03:57:22.420Z,15.24
2017-07-18T03:58:23.849Z,15.13
2017-07-18T03:59:25.274Z,15.23
2017-07-18T04:00:26.698Z,15.17
2017-07-18T04:01:28.122Z,15.26
2017-07-18T04:02:29.547Z,15.11
2017-07-18T04:03:30.979Z,15.26
2017-07-18T04:04:32.414Z,15.13
2017-07-18T04:05:33.831Z,15.02
2017-07-18T04:06:35.258Z,15.02
2017-07-18T04:07:36.681Z,14.75
2017-07-18T04:08:38.111Z,14.57
2017-07-18T04:09:39.533Z,14.62
2017-07-18T04:10:40.954Z,14.54
2017-07-18T04:11:42.385Z,14.52
2017-07-18T04:12:44.466Z,14.52
2017-07-18T04:13:45.893Z,14.80
2017-07-18T04:14:47.325Z,14.88
2017-07-18T04:15:48.758Z,14.86
2017-07-18T04:16:50.183Z,14.65
2017-07-18T04:17:51.610Z,14.72
2017-07-18T04:18:53.188Z,14.78
2017-07-18T04:19:54.684Z,14.88
2017-07-18T04:20:56.113Z,15.03
2017-07-18T04:21:57.529Z,15.35
2017-07-18T04:22:58.951Z,15.59
2017-07-18T04:24:00.372Z,15.56
2017-07-18T04:25:01.802Z,15.67
2017-07-18T04:26:03.218Z,15.66
2017-07-18T04:27:04.648Z,15.54
2017-07-18T04:28:06.073Z,15.56
2017-07-18T04:29:07.517Z,15.59
2017-07-18T04:30:08.932Z,15.54
2017-07-18T04:31:10.360Z,15.26
2017-07-18T04:32:11.783Z,15.30
2017-07-18T04:33:13.204Z,15.36
2017-07-18T04:34:14.635Z,15.39
2017-07-18T04:35:16.058Z,15.21
2017-07-18T04:36:17.478Z,15.17
2017-07-18T04:37:18.895Z,14.98
2017-07-18T04:38:20.340Z,15.05
2017-07-18T04:39:21.765Z,15.33
2017-07-18T04:40:23.188Z,15.33
2017-07-18T04:41:24.612Z,15.12
2017-07-18T04:42:26.044Z,14.87
2017-07-18T04:43:27.461Z,14.83
2017-07-18T04:44:28.889Z,14.71
2017-07-18T04:45:30.314Z,14.78
2017-07-18T04:46:31.740Z,14.81
2017-07-18T04:47:33.164Z,14.88
2017-07-18T04:48:34.592Z,14.84
2017-07-18T04:49:36.011Z,14.98
2017-07-18T04:50:37.442Z,14.94
2017-07-18T04:51:38.876Z,14.93
2017-07-18T04:52:40.320Z,14.81
2017-07-18T04:53:41.745Z,14.72
2017-07-18T04:54:43.170Z,14.69
2017-07-18T04:55:44.599Z,14.74
2017-07-18T04:56:46.039Z,14.69
2017-07-18T04:57:47.459Z,14.88
2017-07-18T04:58:48.886Z,14.75
2017-07-18T04:59:50.320Z,14.78
2017-07-18T05:00:51.748Z,14.93
2017-07-18T05:01:53.167Z,15.08
2017-07-18T05:02:54.597Z,15.08
2017-07-18T05:03:56.023Z,15.05
2017-07-18T05:04:57.459Z,15.05
2017-07-18T05:05:58.885Z,15.06
2017-07-18T05:07:00.310Z,15.20
2017-07-18T05:08:01.735Z,15.48
2017-07-18T05:09:03.170Z,15.41
2017-07-18T05:10:04.593Z,15.36
2017-07-18T05:11:06.016Z,15.19
2017-07-18T05:12:07.442Z,15.38
2017-07-18T05:13:08.875Z,15.39
2017-07-18T05:14:12.322Z,15.41
2017-07-18T05:15:13.737Z,15.30
2017-07-18T05:16:15.165Z,15.42
2017-07-18T05:17:16.581Z,15.30
2017-07-18T05:18:18.009Z,15.41
2017-07-18T05:19:19.437Z,15.54
2017-07-18T05:20:20.867Z,15.52
2017-07-18T05:21:22.294Z,15.76
2017-07-18T05:22:23.719Z,15.82
2017-07-18T05:23:25.145Z,15.67
2017-07-18T05:24:26.578Z,15.79
2017-07-18T05:25:27.998Z,15.70
2017-07-18T05:26:29.425Z,15.66
2017-07-18T05:27:30.848Z,15.54
2017-07-18T05:28:32.285Z,15.68
2017-07-18T05:29:33.710Z,15.74
2017-07-18T05:30:35.134Z,15.68
2017-07-18T05:31:36.563Z,15.79
2017-07-18T05:32:37.994Z,15.99
2017-07-18T05:33:39.422Z,15.78
2017-07-18T05:34:40.852Z,15.74
2017-07-18T05:35:42.272Z,16.01
2017-07-18T05:36:43.698Z,16.09
2017-07-18T05:37:45.124Z,16.00
2017-07-18T05:38:46.547Z,16.25
2017-07-18T05:39:47.973Z,16.03
2017-07-18T05:40:49.398Z,16.09
2017-07-18T05:41:50.820Z,16.27
2017-07-18T05:42:52.246Z,16.15
2017-07-18T05:43:53.672Z,16.12
2017-07-18T05:44:55.093Z,16.83
2017-07-18T05:45:56.516Z,16.73
2017-07-18T05:46:57.944Z,16.81
2017-07-18T05:47:59.370Z,16.89
2017-07-18T05:49:00.793Z,17.03
2017-07-18T05:50:02.803Z,16.90
2017-07-18T05:51:04.237Z,17.10
2017-07-18T05:52:05.670Z,17.04
2017-07-18T05:53:07.097Z,17.20
2017-07-18T05:54:08.525Z,17.08
2017-07-18T05:55:09.946Z,17.22
2017-07-18T05:56:11.372Z,17.36
2017-07-18T05:57:12.800Z,17.41
2017-07-18T05:58:14.226Z,17.44
2017-07-18T05:59:15.656Z,17.51
2017-07-18T06:00:17.084Z,17.43
2017-07-18T06:01:18.509Z,17.40
2017-07-18T06:02:19.935Z,17.70
2017-07-18T06:03:21.362Z,17.66
2017-07-18T06:04:22.787Z,17.53
2017-07-18T06:05:24.225Z,17.69
2017-07-18T06:06:25.653Z,17.55
2017-07-18T06:07:27.085Z,17.66
2017-07-18T06:08:28.513Z,17.71
2017-07-18T06:09:29.938Z,17.71
2017-07-18T06:10:31.362Z,17.89
2017-07-18T06:11:32.787Z,17.74
2017-07-18T06:12:34.213Z,17.85
2017-07-18T06:13:35.647Z,17.89
2017-07-18T06:14:37.072Z,17.97
2017-07-18T06:15:38.505Z,18.04
2017-07-18T06:16:39.933Z,18.19
2017-07-18T06:17:41.364Z,18.33
2017-07-18T06:18:42.793Z,18.39
2017-07-18T06:19:44.215Z,18.29
2017-07-18T06:20:45.634Z,18.42
2017-07-18T06:21:47.055Z,18.49
2017-07-18T06:22:48.478Z,18.40
2017-07-18T06:23:49.918Z,18.46
2017-07-18T06:24:51.360Z,18.44
2017-07-18T06:25:52.804Z,18.50
2017-07-18T06:26:54.224Z,18.47
2017-07-18T06:27:55.646Z,18.52
2017-07-18T06:28:57.075Z,18.54
2017-07-18T06:29:58.501Z,18.62
2017-07-18T06:30:59.926Z,18.72
2017-07-18T06:32:01.356Z,18.68
2017-07-18T06:33:02.780Z,18.65
2017-07-18T06:34:04.221Z,18.68
2017-07-18T06:35:05.663Z,18.76
2017-07-18T06:36:07.112Z,18.90
2017-07-18T06:37:08.580Z,18.92
2017-07-18T06:38:10.020Z,18.95
2017-07-18T06:39:11.435Z,19.17
2017-07-18T06:40:12.858Z,18.91
2017-07-18T06:41:14.291Z,19.10
2017-07-18T06:42:15.718Z,19.10
2017-07-18T06:43:17.149Z,19.06
2017-07-18T06:44:18.578Z,19.32
2017-07-18T06:45:20.012Z,19.36
2017-07-18T06:46:21.440Z,19.31
2017-07-18T06:47:22.867Z,19.40
2017-07-18T06:48:24.296Z,19.46
2017-07-18T06:49:25.730Z,19.36
2017-07-18T06:50:27.164Z,19.32
2017-07-18T06:51:28.591Z,19.42
2017-07-18T06:52:30.021Z,19.53
2017-07-18T06:53:31.455Z,19.58
2017-07-18T06:54:33.511Z,19.53
2017-07-18T06:55:34.931Z,19.61
2017-07-18T06:56:36.361Z,19.58
2017-07-18T06:57:37.793Z,19.66
2017-07-18T06:58:39.225Z,19.58
2017-07-18T06:59:40.651Z,19.48
2017-07-18T07:00:42.080Z,19.58
2017-07-18T07:01:43.510Z,19.53
2017-07-18T07:02:44.935Z,19.58
2017-07-18T07:03:46.364Z,19.72
2017-07-18T07:04:47.805Z,19.70
2017-07-18T07:05:49.228Z,19.86
2017-07-18T07:06:51.272Z,19.83
2017-07-18T07:07:52.709Z,19.91
2017-07-18T07:08:54.133Z,19.84
2017-07-18T07:09:55.561Z,19.90
2017-07-18T07:10:56.994Z,19.95
2017-07-18T07:11:58.423Z,20.02
2017-07-18T07:12:59.853Z,20.09
2017-07-18T07:14:01.291Z,20.10
2017-07-18T07:15:02.730Z,19.94
2017-07-18T07:16:04.153Z,19.97
2017-07-18T07:17:05.574Z,19.84
2017-07-18T07:18:07.003Z,19.94
2017-07-18T07:19:09.136Z,20.03
2017-07-18T07:20:10.568Z,20.00
2017-07-18T07:21:11.993Z,19.98
2017-07-18T07:22:13.426Z,19.95
2017-07-18T07:23:14.865Z,20.09
2017-07-18T07:24:16.292Z,20.10
2017-07-18T07:25:17.722Z,20.16
2017-07-18T07:26:19.159Z,20.20
2017-07-18T07:27:20.584Z,20.24
2017-07-18T07:28:22.727Z,20.20
2017-07-18T07:29:24.156Z,20.24
2017-07-18T07:30:25.588Z,20.30
2017-07-18T07:31:27.025Z,20.24
2017-07-18T07:32:30.108Z,20.34
2017-07-18T07:33:31.541Z,20.56
2017-07-18T07:34:32.974Z,20.49
2017-07-18T07:35:34.400Z,20.68
2017-07-18T07:36:35.826Z,20.65
2017-07-18T07:37:37.254Z,20.65
2017-07-18T07:38:38.687Z,20.74
2017-07-18T07:39:40.119Z,20.83
2017-07-18T07:40:41.543Z,20.87
2017-07-18T07:41:42.983Z,20.83
2017-07-18T07:42:44.670Z,20.99
2017-07-18T07:43:45.809Z,21.05
2017-07-18T07:44:47.235Z,21.02
2017-07-18T07:45:48.669Z,20.95
2017-07-18T07:46:50.101Z,20.93
2017-07-18T07:47:51.533Z,20.89
2017-07-18T07:48:53.343Z,20.87
2017-07-18T07:49:54.777Z,20.91
2017-07-18T07:50:56.201Z,20.68
2017-07-18T07:51:57.633Z,20.79
2017-07-18T07:52:59.063Z,20.93
2017-07-18T07:54:00.488Z,21.08
2017-07-18T07:55:01.924Z,21.04
2017-07-18T07:56:03.348Z,21.20
2017-07-18T07:57:04.784Z,21.24
2017-07-18T07:58:06.213Z,21.27
2017-07-18T07:59:07.641Z,21.36
2017-07-18T08:00:09.073Z,21.26
2017-07-18T08:01:10.499Z,21.34
2017-07-18T08:02:11.923Z,21.16
2017-07-18T08:03:13.354Z,21.35
2017-07-18T08:04:14.783Z,21.29
2017-07-18T08:05:16.213Z,21.35
2017-07-18T08:06:17.643Z,21.45
2017-07-18T08:07:19.085Z,21.44
2017-07-18T08:08:20.503Z,21.44
2017-07-18T08:09:21.929Z,21.41
2017-07-18T08:10:23.374Z,21.30
2017-07-18T08:11:24.802Z,21.56
2017-07-18T08:12:26.227Z,21.57
2017-07-18T08:13:27.656Z,21.54
2017-07-18T08:14:29.081Z,21.42
2017-07-18T08:15:30.510Z,21.41
2017-07-18T08:16:31.941Z,21.45
2017-07-18T08:17:33.374Z,21.64
2017-07-18T08:18:34.805Z,21.75
2017-07-18T08:19:36.240Z,21.71
2017-07-18T08:20:37.672Z,21.79
2017-07-18T08:21:39.109Z,21.67
2017-07-18T08:22:40.542Z,21.61
2017-07-18T08:23:41.972Z,21.67
2017-07-18T08:24:43.409Z,21.82
2017-07-18T08:25:44.835Z,21.79
2017-07-18T08:26:46.268Z,21.91
2017-07-18T08:27:47.707Z,21.76
2017-07-18T08:28:49.134Z,22.01
2017-07-18T08:29:50.562Z,22.09
2017-07-18T08:30:51.994Z,22.28
2017-07-18T08:31:53.420Z,22.16
2017-07-18T08:32:54.853Z,22.16
2017-07-18T08:33:56.296Z,22.27
2017-07-18T08:34:57.731Z,22.29
2017-07-18T08:35:59.272Z,22.28
2017-07-18T08:37:00.710Z,22.39
2017-07-18T08:38:02.220Z,22.64
2017-07-18T08:39:03.775Z,22.75
2017-07-18T08:40:06.060Z,22.86
2017-07-18T08:41:07.758Z,22.99
2017-07-18T08:42:09.176Z,22.87
2017-07-18T08:43:10.604Z,22.90
2017-07-18T08:44:12.033Z,22.86
2017-07-18T08:45:13.472Z,22.92
2017-07-18T08:46:14.911Z,22.90
2017-07-18T08:47:16.347Z,22.84
2017-07-18T08:48:17.783Z,22.86
2017-07-18T08:49:19.222Z,22.80
2017-07-18T08:50:20.661Z,23.12
2017-07-18T08:51:22.095Z,23.14
2017-07-18T08:52:23.536Z,22.90
2017-07-18T08:53:24.973Z,23.04
2017-07-18T08:54:26.441Z,23.19
2017-07-18T08:55:27.850Z,23.35
2017-07-18T08:56:29.283Z,23.42
2017-07-18T08:57:30.717Z,23.38
2017-07-18T08:58:32.142Z,23.39
2017-07-18T08:59:33.585Z,23.60
2017-07-18T09:00:35.016Z,23.40
2017-07-18T09:01:36.448Z,23.67
2017-07-18T09:02:37.877Z,23.89
2017-07-18T09:03:39.313Z,23.75
2017-07-18T09:04:40.749Z,23.64
2017-07-18T09:05:42.186Z,23.72
2017-07-18T09:06:43.610Z,23.86
2017-07-18T09:07:45.045Z,23.89
2017-07-18T09:08:46.482Z,23.60
2017-07-18T09:09:47.912Z,23.52
2017-07-18T09:10:49.345Z,23.58
2017-07-18T09:11:50.775Z,23.68
2017-07-18T09:12:52.217Z,23.80
2017-07-18T09:13:53.644Z,23.68
2017-07-18T09:14:55.082Z,23.76
2017-07-18T09:15:56.513Z,23.70
2017-07-18T09:16:57.946Z,23.85
2017-07-18T09:17:59.382Z,23.71
2017-07-18T09:19:01.506Z,23.92
2017-07-18T09:20:02.944Z,24.00
2017-07-18T09:21:04.384Z,23.75
2017-07-18T09:22:05.830Z,23.67
2017-07-18T09:23:07.253Z,23.68
2017-07-18T09:24:08.692Z,23.76
2017-07-18T09:25:10.130Z,23.92
2017-07-18T09:26:11.572Z,24.16
2017-07-18T09:27:13.003Z,24.04
2017-07-18T09:28:14.979Z,23.77
2017-07-18T09:29:16.413Z,23.82
2017-07-18T09:30:17.846Z,23.86
2017-07-18T09:31:19.283Z,23.86
2017-07-18T09:32:20.713Z,23.79
2017-07-18T09:33:22.148Z,23.71
2017-07-18T09:34:23.577Z,23.68
2017-07-18T09:35:25.018Z,23.75
2017-07-18T09:36:26.464Z,23.90
2017-07-18T09:37:27.893Z,23.82
2017-07-18T09:38:29.334Z,23.82
2017-07-18T09:39:30.762Z,23.86
2017-07-18T09:40:32.203Z,23.89
2017-07-18T09:41:33.634Z,24.04
2017-07-18T09:42:35.068Z,24.08
2017-07-18T09:43:36.500Z,23.97
2017-07-18T09:44:37.930Z,24.01
2017-07-18T09:45:39.372Z,24.16
2017-07-18T09:46:40.821Z,24.02
2017-07-18T09:47:42.309Z,24.17
2017-07-18T09:48:43.742Z,24.42
2017-07-18T09:49:45.175Z,24.45
2017-07-18T09:50:46.613Z,24.47
2017-07-18T09:51:48.068Z,24.63
2017-07-18T09:52:49.650Z,24.57
2017-07-18T09:53:51.071Z,24.45
2017-07-18T09:54:52.503Z,24.63
2017-07-18T09:55:55.837Z,24.80
2017-07-18T09:56:57.763Z,24.76
2017-07-18T09:58:00.154Z,24.87
2017-07-18T09:59:01.598Z,24.94
2017-07-18T10:00:03.039Z,25.19
2017-07-18T10:01:04.471Z,25.22
2017-07-18T10:02:05.904Z,25.09
2017-07-18T10:03:07.344Z,24.82
2017-07-18T10:04:08.776Z,24.79
2017-07-18T10:05:10.210Z,24.82
2017-07-18T10:06:11.637Z,24.83
2017-07-18T10:07:13.078Z,25.00
2017-07-18T10:08:14.511Z,25.05
2017-07-18T10:09:15.945Z,25.02
2017-07-18T10:10:17.396Z,24.98
2017-07-18T10:11:18.826Z,25.13
2017-07-18T10:12:20.270Z,25.28
2017-07-18T10:13:21.711Z,25.57
2017-07-18T10:14:23.142Z,25.64
2017-07-18T10:15:24.582Z,25.34
2017-07-18T10:16:26.020Z,25.25
2017-07-18T10:17:27.466Z,25.44
2017-07-18T10:18:28.902Z,25.27
2017-07-18T10:19:30.342Z,25.24
2017-07-18T10:20:31.775Z,25.37
2017-07-18T10:21:33.207Z,25.37
2017-07-18T10:22:34.642Z,25.65
2017-07-18T10:23:36.084Z,25.62
2017-07-18T10:24:37.513Z,25.65
2017-07-18T10:25:38.947Z,25.79
2017-07-18T10:26:40.388Z,25.65
2017-07-18T10:27:41.834Z,25.42
2017-07-18T10:28:43.263Z,25.22
2017-07-18T10:29:44.698Z,25.17
2017-07-18T10:30:46.136Z,25.27
2017-07-18T10:31:47.602Z,25.09
2017-07-18T10:32:49.047Z,25.13
2017-07-18T10:33:50.485Z,25.17
2017-07-18T10:34:51.914Z,25.10
2017-07-18T10:35:53.575Z,25.10
2017-07-18T10:36:55.003Z,25.39
2017-07-18T10:37:56.434Z,25.47
2017-07-18T10:38:57.888Z,25.68
2017-07-18T10:39:59.321Z,25.90
2017-07-18T10:41:00.755Z,26.01
2017-07-18T10:42:02.186Z,25.97
2017-07-18T10:43:03.672Z,26.35
2017-07-18T10:44:05.107Z,26.31
2017-07-18T10:45:06.537Z,26.43
2017-07-18T10:46:07.974Z,26.52
2017-07-18T10:47:09.408Z,26.25
2017-07-18T10:48:10.842Z,26.31
2017-07-18T10:49:12.272Z,26.24
2017-07-18T10:50:13.712Z,26.29
2017-07-18T10:51:15.158Z,26.22
2017-07-18T10:52:16.644Z,26.21
2017-07-18T10:53:18.061Z,26.46
2017-07-18T10:54:19.501Z,26.54
2017-07-18T10:55:20.939Z,26.46
2017-07-18T10:56:22.382Z,26.49
2017-07-18T10:57:23.823Z,26.61
2017-07-18T10:58:25.271Z,26.64
2017-07-18T10:59:26.715Z,26.29
2017-07-18T11:00:28.157Z,26.44
2017-07-18T11:01:29.594Z,26.83
2017-07-18T11:02:31.033Z,26.86
2017-07-18T11:03:32.472Z,26.86
2017-07-18T11:04:33.899Z,27.09
2017-07-18T11:05:35.341Z,27.47
2017-07-18T11:06:36.769Z,27.62
2017-07-18T11:07:38.207Z,27.24
2017-07-18T11:08:39.639Z,26.91
2017-07-18T11:09:41.075Z,26.94
2017-07-18T11:10:42.507Z,26.94
2017-07-18T11:11:43.939Z,26.89
2017-07-18T11:12:45.379Z,26.89
2017-07-18T11:13:46.804Z,26.94
2017-07-18T11:14:48.236Z,27.04
2017-07-18T11:15:49.666Z,26.96
2017-07-18T11:16:51.113Z,27.32
2017-07-18T11:17:52.556Z,27.36
2017-07-18T11:18:53.994Z,27.26
2017-07-18T11:19:55.429Z,27.39
2017-07-18T11:20:56.858Z,27.54
2017-07-18T11:21:58.307Z,27.80
2017-07-18T11:22:59.747Z,27.48
2017-07-18T11:24:01.183Z,27.39
2017-07-18T11:25:02.619Z,27.70
2017-07-18T11:26:04.051Z,27.38
2017-07-18T11:27:05.495Z,27.47
2017-07-18T11:28:06.935Z,27.28
2017-07-18T11:29:08.372Z,27.48
2017-07-18T11:30:09.811Z,27.35
2017-07-18T11:31:11.245Z,27.50
2017-07-18T11:32:12.687Z,27.88
2017-07-18T11:33:14.121Z,28.04
2017-07-18T11:34:15.564Z,28.11
2017-07-18T11:35:17.005Z,28.17
2017-07-18T11:36:18.444Z,28.59
2017-07-18T11:37:19.888Z,28.66
2017-07-18T11:38:21.327Z,28.87
2017-07-18T11:39:22.763Z,28.87
2017-07-18T11:40:24.204Z,28.85
2017-07-18T11:41:25.658Z,28.80
2017-07-18T11:42:27.096Z,28.22
2017-07-18T11:43:28.529Z,27.98
2017-07-18T11:44:29.975Z,27.64
2017-07-18T11:45:31.422Z,27.41
2017-07-18T11:46:32.854Z,27.23
2017-07-18T11:47:34.291Z,27.41
2017-07-18T11:48:35.722Z,27.69
2017-07-18T11:49:37.155Z,27.69
2017-07-18T11:50:38.593Z,27.50
2017-07-18T11:51:40.024Z,28.03
2017-07-18T11:52:41.467Z,28.44
2017-07-18T11:53:42.904Z,28.60
2017-07-18T11:54:44.351Z,28.85
2017-07-18T11:55:45.796Z,28.77
2017-07-18T11:56:47.235Z,28.81
2017-07-18T11:57:48.675Z,28.84
2017-07-18T11:58:50.103Z,28.81
2017-07-18T11:59:51.531Z,28.88
2017-07-18T12:00:52.963Z,28.97
2017-07-18T12:01:54.405Z,29.18
2017-07-18T12:02:55.877Z,29.08
2017-07-18T12:03:57.324Z,29.07
2017-07-18T12:04:58.766Z,29.33
2017-07-18T12:06:00.213Z,29.34
2017-07-18T12:07:01.640Z,28.78
2017-07-18T12:08:03.081Z,29.00
2017-07-18T12:09:04.522Z,28.82
2017-07-18T12:10:05.957Z,29.10
2017-07-18T12:11:07.395Z,29.10
2017-07-18T12:12:08.830Z,29.04
2017-07-18T12:13:10.280Z,29.20
2017-07-18T12:14:11.732Z,29.49
2017-07-18T12:15:13.169Z,28.95
2017-07-18T12:16:14.598Z,28.95
2017-07-18T12:17:16.033Z,29.23
2017-07-18T12:18:17.477Z,29.23
2017-07-18T12:19:18.918Z,29.57
2017-07-18T12:20:20.376Z,29.49
2017-07-18T12:21:21.792Z,29.70
2017-07-18T12:22:23.235Z,29.59
2017-07-18T12:23:24.672Z,29.47
2017-07-18T12:24:26.123Z,29.03
2017-07-18T12:25:27.566Z,28.97
2017-07-18T12:26:29.007Z,29.13
2017-07-18T12:27:30.452Z,29.29
2017-07-18T12:28:31.900Z,29.19
2017-07-18T12:29:33.345Z,29.28
2017-07-18T12:30:34.783Z,28.93
2017-07-18T12:31:36.221Z,28.82
2017-07-18T12:32:37.657Z,29.10
2017-07-18T12:33:39.096Z,29.04
2017-07-18T12:34:40.546Z,29.03
2017-07-18T12:35:42.001Z,28.70
2017-07-18T12:36:43.427Z,28.65
2017-07-18T12:37:44.866Z,28.85
2017-07-18T12:38:46.305Z,28.84
2017-07-18T12:39:47.742Z,28.82
2017-07-18T12:40:49.176Z,28.93
2017-07-18T12:41:50.621Z,28.54
2017-07-18T12:42:52.063Z,28.38
2017-07-18T12:43:53.503Z,28.54
2017-07-18T12:44:54.935Z,28.78
2017-07-18T12:45:56.391Z,28.77
2017-07-18T12:46:57.818Z,28.82
2017-07-18T12:47:59.267Z,28.95
2017-07-18T12:49:00.701Z,29.01
2017-07-18T12:50:02.155Z,29.13
2017-07-18T12:51:03.593Z,29.37
2017-07-18T12:52:05.031Z,29.38
2017-07-18T12:53:06.470Z,29.56
2017-07-18T12:54:07.911Z,29.31
2017-07-18T12:55:09.355Z,28.91
2017-07-18T12:56:10.799Z,28.75
2017-07-18T12:57:12.233Z,28.66
2017-07-18T12:58:13.677Z,28.51
2017-07-18T12:59:15.106Z,28.78
2017-07-18T13:00:16.546Z,28.87
2017-07-18T13:01:18.956Z,28.87
2017-07-18T13:02:20.363Z,28.70
2017-07-18T13:03:21.806Z,28.65
2017-07-18T13:04:23.244Z,28.95
2017-07-18T13:05:24.687Z,29.13
2017-07-18T13:06:26.204Z,29.19
2017-07-18T13:07:27.658Z,29.10
2017-07-18T13:08:29.107Z,28.65
2017-07-18T13:09:30.550Z,28.73
2017-07-18T13:10:32.013Z,28.77
2017-07-18T13:11:33.458Z,28.80